sensor_id;sensor_type;location;lat;lon;timestamp;P1;durP1;ratioP1;P2;durP2;ratioP2
37715;SDS011;23562;50.540;12.504;2022-09-16T00:01:17;6.35;;;3.50;;
37715;SDS011;23562;50.540;12.504;2022-09-16T00:03:44;5.00;;;3.45;;
37715;SDS011;23562;50.540;12.504;2022-09-16T00:06:15;9.73;;;3.17;;
37715;SDS011;23562;50.540;12.504;2022-09-16T00:08:46;9.70;;;3.22;;
37715;SDS011;23562;50.540;12.504;2022-09-16T00:11:11;8.45;;;3.10;;
37715;SDS011;23562;50.540;12.504;2022-09-16T00:13:37;6.72;;;3.17;;
37715;SDS011;23562;50.540;12.504;2022-09-16T00:16:05;9.75;;;3.03;;
37715;SDS011;23562;50.540;12.504;2022-09-16T00:18:33;6.50;;;3.35;;
37715;SDS011;23562;50.540;12.504;2022-09-16T00:20:58;8.02;;;3.75;;
37715;SDS011;23562;50.540;12.504;2022-09-16T00:23:24;8.05;;;3.72;;
37715;SDS011;23562;50.540;12.504;2022-09-16T00:25:53;5.07;;;3.42;;
37715;SDS011;23562;50.540;12.504;2022-09-16T00:28:32;6.25;;;3.17;;
37715;SDS011;23562;50.540;12.504;2022-09-16T00:31:01;5.95;;;3.75;;
37715;SDS011;23562;50.540;12.504;2022-09-16T00:33:27;9.93;;;3.75;;
37715;SDS011;23562;50.540;12.504;2022-09-16T00:36:03;4.78;;;3.45;;
37715;SDS011;23562;50.540;12.504;2022-09-16T00:38:29;4.68;;;3.25;;
37715;SDS011;23562;50.540;12.504;2022-09-16T00:40:54;8.95;;;3.50;;
37715;SDS011;23562;50.540;12.504;2022-09-16T00:43:20;12.60;;;3.85;;
37715;SDS011;23562;50.540;12.504;2022-09-16T00:45:47;6.63;;;3.58;;
37715;SDS011;23562;50.540;12.504;2022-09-16T00:48:19;8.27;;;4.20;;
37715;SDS011;23562;50.540;12.504;2022-09-16T00:50:47;7.38;;;3.90;;
37715;SDS011;23562;50.540;12.504;2022-09-16T00:53:17;8.05;;;3.92;;
37715;SDS011;23562;50.540;12.504;2022-09-16T00:55:46;6.57;;;3.72;;
37715;SDS011;23562;50.540;12.504;2022-09-16T00:58:15;8.43;;;3.75;;
37715;SDS011;23562;50.540;12.504;2022-09-16T01:01:05;8.65;;;3.85;;
37715;SDS011;23562;50.540;12.504;2022-09-16T01:03:32;6.90;;;4.10;;
37715;SDS011;23562;50.540;12.504;2022-09-16T01:06:22;6.00;;;3.90;;
37715;SDS011;23562;50.540;12.504;2022-09-16T01:08:50;6.63;;;3.97;;
37715;SDS011;23562;50.540;12.504;2022-09-16T01:11:15;7.55;;;3.60;;
37715;SDS011;23562;50.540;12.504;2022-09-16T01:13:41;5.53;;;4.00;;
37715;SDS011;23562;50.540;12.504;2022-09-16T01:16:19;5.88;;;3.55;;
37715;SDS011;23562;50.540;12.504;2022-09-16T01:28:06;9.73;;;3.97;;
37715;SDS011;23562;50.540;12.504;2022-09-16T01:30:45;9.45;;;4.28;;
37715;SDS011;23562;50.540;12.504;2022-09-16T01:33:23;7.57;;;4.57;;
37715;SDS011;23562;50.540;12.504;2022-09-16T01:36:20;11.25;;;4.65;;
37715;SDS011;23562;50.540;12.504;2022-09-16T01:39:01;7.13;;;4.78;;
37715;SDS011;23562;50.540;12.504;2022-09-16T01:41:39;9.13;;;4.70;;
37715;SDS011;23562;50.540;12.504;2022-09-16T01:46:58;5.65;;;4.40;;
37715;SDS011;23562;50.540;12.504;2022-09-16T01:49:38;12.10;;;4.57;;
37715;SDS011;23562;50.540;12.504;2022-09-16T01:52:18;9.60;;;4.40;;
37715;SDS011;23562;50.540;12.504;2022-09-16T01:54:53;9.80;;;4.63;;
37715;SDS011;23562;50.540;12.504;2022-09-16T01:57:37;8.43;;;4.57;;
37715;SDS011;23562;50.540;12.504;2022-09-16T02:00:09;14.32;;;4.65;;
37715;SDS011;23562;50.540;12.504;2022-09-16T02:02:43;7.50;;;4.50;;
37715;SDS011;23562;50.540;12.504;2022-09-16T02:05:18;7.68;;;4.53;;
37715;SDS011;23562;50.540;12.504;2022-09-16T02:07:50;12.57;;;4.30;;
37715;SDS011;23562;50.540;12.504;2022-09-16T02:10:25;7.88;;;3.97;;
37715;SDS011;23562;50.540;12.504;2022-09-16T02:12:54;9.85;;;4.90;;
37715;SDS011;23562;50.540;12.504;2022-09-16T02:15:26;8.70;;;4.10;;
37715;SDS011;23562;50.540;12.504;2022-09-16T02:17:56;9.02;;;4.72;;
37715;SDS011;23562;50.540;12.504;2022-09-16T02:20:26;7.30;;;4.97;;
37715;SDS011;23562;50.540;12.504;2022-09-16T02:22:58;14.10;;;5.20;;
37715;SDS011;23562;50.540;12.504;2022-09-16T02:25:32;11.63;;;4.50;;
37715;SDS011;23562;50.540;12.504;2022-09-16T02:28:01;10.97;;;5.27;;
37715;SDS011;23562;50.540;12.504;2022-09-16T02:30:30;10.90;;;4.78;;
37715;SDS011;23562;50.540;12.504;2022-09-16T02:32:58;6.47;;;4.90;;
37715;SDS011;23562;50.540;12.504;2022-09-16T02:35:28;10.27;;;5.05;;
37715;SDS011;23562;50.540;12.504;2022-09-16T02:38:11;6.78;;;4.30;;
37715;SDS011;23562;50.540;12.504;2022-09-16T02:40:47;8.90;;;4.57;;
37715;SDS011;23562;50.540;12.504;2022-09-16T02:43:15;7.20;;;4.78;;
37715;SDS011;23562;50.540;12.504;2022-09-16T02:54:04;7.88;;;5.15;;
37715;SDS011;23562;50.540;12.504;2022-09-16T02:56:40;8.07;;;4.90;;
37715;SDS011;23562;50.540;12.504;2022-09-16T02:59:06;8.57;;;5.20;;
37715;SDS011;23562;50.540;12.504;2022-09-16T03:01:37;10.35;;;4.97;;
37715;SDS011;23562;50.540;12.504;2022-09-16T03:04:07;11.30;;;5.43;;
37715;SDS011;23562;50.540;12.504;2022-09-16T03:06:34;9.63;;;5.47;;
37715;SDS011;23562;50.540;12.504;2022-09-16T03:09:00;8.38;;;5.43;;
37715;SDS011;23562;50.540;12.504;2022-09-16T03:14:22;10.73;;;5.43;;
37715;SDS011;23562;50.540;12.504;2022-09-16T03:20:25;9.07;;;6.07;;
37715;SDS011;23562;50.540;12.504;2022-09-16T03:22:42;12.25;;;5.75;;
37715;SDS011;23562;50.540;12.504;2022-09-16T03:25:26;13.07;;;6.15;;
37715;SDS011;23562;50.540;12.504;2022-09-16T03:31:17;14.75;;;6.45;;
37715;SDS011;23562;50.540;12.504;2022-09-16T03:34:00;8.73;;;5.85;;
37715;SDS011;23562;50.540;12.504;2022-09-16T03:36:36;7.65;;;5.53;;
37715;SDS011;23562;50.540;12.504;2022-09-16T03:39:08;7.38;;;5.70;;
37715;SDS011;23562;50.540;12.504;2022-09-16T03:41:35;15.85;;;5.90;;
37715;SDS011;23562;50.540;12.504;2022-09-16T03:44:01;8.52;;;5.57;;
37715;SDS011;23562;50.540;12.504;2022-09-16T03:46:26;10.10;;;6.03;;
37715;SDS011;23562;50.540;12.504;2022-09-16T03:48:53;8.55;;;5.05;;
37715;SDS011;23562;50.540;12.504;2022-09-16T03:51:19;9.48;;;5.88;;
37715;SDS011;23562;50.540;12.504;2022-09-16T03:53:44;13.40;;;5.45;;
37715;SDS011;23562;50.540;12.504;2022-09-16T03:56:09;14.20;;;5.82;;
37715;SDS011;23562;50.540;12.504;2022-09-16T03:58:34;10.68;;;5.63;;
37715;SDS011;23562;50.540;12.504;2022-09-16T04:00:59;9.38;;;5.15;;
37715;SDS011;23562;50.540;12.504;2022-09-16T04:03:25;9.18;;;5.60;;
37715;SDS011;23562;50.540;12.504;2022-09-16T04:05:53;8.07;;;5.18;;
37715;SDS011;23562;50.540;12.504;2022-09-16T04:08:19;8.77;;;5.10;;
37715;SDS011;23562;50.540;12.504;2022-09-16T04:10:54;7.80;;;4.97;;
37715;SDS011;23562;50.540;12.504;2022-09-16T04:13:20;10.27;;;5.15;;
37715;SDS011;23562;50.540;12.504;2022-09-16T04:15:46;14.75;;;5.68;;
37715;SDS011;23562;50.540;12.504;2022-09-16T04:18:11;8.50;;;5.13;;
37715;SDS011;23562;50.540;12.504;2022-09-16T04:20:36;9.18;;;5.03;;
37715;SDS011;23562;50.540;12.504;2022-09-16T04:23:01;9.98;;;4.80;;
37715;SDS011;23562;50.540;12.504;2022-09-16T04:25:27;8.82;;;4.63;;
37715;SDS011;23562;50.540;12.504;2022-09-16T04:27:53;9.82;;;5.68;;
37715;SDS011;23562;50.540;12.504;2022-09-16T04:30:19;10.52;;;5.85;;
37715;SDS011;23562;50.540;12.504;2022-09-16T04:32:44;17.50;;;5.65;;
37715;SDS011;23562;50.540;12.504;2022-09-16T04:35:09;11.95;;;6.13;;
37715;SDS011;23562;50.540;12.504;2022-09-16T04:37:35;11.77;;;5.55;;
37715;SDS011;23562;50.540;12.504;2022-09-16T04:40:00;11.10;;;6.28;;
37715;SDS011;23562;50.540;12.504;2022-09-16T04:42:25;10.48;;;5.60;;
37715;SDS011;23562;50.540;12.504;2022-09-16T04:44:51;10.05;;;5.70;;
37715;SDS011;23562;50.540;12.504;2022-09-16T04:47:16;10.23;;;5.30;;
37715;SDS011;23562;50.540;12.504;2022-09-16T04:49:41;8.25;;;5.75;;
37715;SDS011;23562;50.540;12.504;2022-09-16T04:52:06;11.63;;;5.80;;
37715;SDS011;23562;50.540;12.504;2022-09-16T04:54:31;13.85;;;6.13;;
37715;SDS011;23562;50.540;12.504;2022-09-16T04:56:57;9.25;;;6.60;;
37715;SDS011;23562;50.540;12.504;2022-09-16T04:59:22;11.57;;;6.90;;
37715;SDS011;23562;50.540;12.504;2022-09-16T05:01:47;10.55;;;7.28;;
37715;SDS011;23562;50.540;12.504;2022-09-16T05:04:12;14.90;;;8.50;;
37715;SDS011;23562;50.540;12.504;2022-09-16T05:06:39;11.50;;;7.93;;
37715;SDS011;23562;50.540;12.504;2022-09-16T05:09:05;17.98;;;8.40;;
37715;SDS011;23562;50.540;12.504;2022-09-16T05:11:31;16.98;;;9.52;;
37715;SDS011;23562;50.540;12.504;2022-09-16T05:14:00;12.35;;;8.35;;
37715;SDS011;23562;50.540;12.504;2022-09-16T05:16:27;16.05;;;8.85;;
37715;SDS011;23562;50.540;12.504;2022-09-16T05:18:53;13.50;;;8.75;;
37715;SDS011;23562;50.540;12.504;2022-09-16T05:21:21;16.83;;;9.07;;
37715;SDS011;23562;50.540;12.504;2022-09-16T05:23:48;18.60;;;8.65;;
37715;SDS011;23562;50.540;12.504;2022-09-16T05:26:14;12.95;;;8.98;;
37715;SDS011;23562;50.540;12.504;2022-09-16T05:28:42;15.05;;;8.70;;
37715;SDS011;23562;50.540;12.504;2022-09-16T05:31:14;10.85;;;8.48;;
37715;SDS011;23562;50.540;12.504;2022-09-16T05:33:44;13.60;;;9.82;;
37715;SDS011;23562;50.540;12.504;2022-09-16T05:36:16;16.73;;;9.57;;
37715;SDS011;23562;50.540;12.504;2022-09-16T05:38:42;13.27;;;9.07;;
37715;SDS011;23562;50.540;12.504;2022-09-16T05:41:07;16.05;;;9.75;;
37715;SDS011;23562;50.540;12.504;2022-09-16T05:43:34;13.02;;;9.25;;
37715;SDS011;23562;50.540;12.504;2022-09-16T05:46:00;19.63;;;9.90;;
37715;SDS011;23562;50.540;12.504;2022-09-16T05:48:26;15.27;;;9.55;;
37715;SDS011;23562;50.540;12.504;2022-09-16T05:53:22;13.65;;;9.73;;
37715;SDS011;23562;50.540;12.504;2022-09-16T05:58:27;20.88;;;11.45;;
37715;SDS011;23562;50.540;12.504;2022-09-16T06:00:59;16.27;;;10.95;;
37715;SDS011;23562;50.540;12.504;2022-09-16T06:03:26;22.10;;;9.95;;
37715;SDS011;23562;50.540;12.504;2022-09-16T06:05:57;17.95;;;10.15;;
37715;SDS011;23562;50.540;12.504;2022-09-16T06:08:27;16.35;;;10.25;;
37715;SDS011;23562;50.540;12.504;2022-09-16T06:10:53;17.73;;;10.27;;
37715;SDS011;23562;50.540;12.504;2022-09-16T06:13:19;15.15;;;10.10;;
37715;SDS011;23562;50.540;12.504;2022-09-16T06:15:48;14.10;;;9.93;;
37715;SDS011;23562;50.540;12.504;2022-09-16T06:20:40;19.45;;;10.75;;
37715;SDS011;23562;50.540;12.504;2022-09-16T06:23:05;21.73;;;10.23;;
37715;SDS011;23562;50.540;12.504;2022-09-16T06:25:30;19.95;;;11.02;;
37715;SDS011;23562;50.540;12.504;2022-09-16T06:27:56;19.50;;;10.90;;
37715;SDS011;23562;50.540;12.504;2022-09-16T06:30:21;19.73;;;10.32;;
37715;SDS011;23562;50.540;12.504;2022-09-16T06:32:46;18.65;;;9.75;;
37715;SDS011;23562;50.540;12.504;2022-09-16T06:35:11;17.27;;;10.23;;
37715;SDS011;23562;50.540;12.504;2022-09-16T06:37:37;17.23;;;10.75;;
37715;SDS011;23562;50.540;12.504;2022-09-16T06:40:02;13.77;;;10.60;;
37715;SDS011;23562;50.540;12.504;2022-09-16T06:42:27;14.98;;;9.55;;
37715;SDS011;23562;50.540;12.504;2022-09-16T06:44:53;15.13;;;9.18;;
37715;SDS011;23562;50.540;12.504;2022-09-16T06:47:18;14.65;;;10.32;;
37715;SDS011;23562;50.540;12.504;2022-09-16T06:49:43;16.88;;;10.43;;
37715;SDS011;23562;50.540;12.504;2022-09-16T06:52:08;16.40;;;10.63;;
37715;SDS011;23562;50.540;12.504;2022-09-16T06:54:35;19.75;;;10.88;;
37715;SDS011;23562;50.540;12.504;2022-09-16T06:57:00;17.75;;;10.07;;
37715;SDS011;23562;50.540;12.504;2022-09-16T06:59:26;18.85;;;10.20;;
37715;SDS011;23562;50.540;12.504;2022-09-16T07:01:51;15.77;;;10.13;;
37715;SDS011;23562;50.540;12.504;2022-09-16T07:04:16;18.33;;;10.00;;
37715;SDS011;23562;50.540;12.504;2022-09-16T07:06:41;13.82;;;10.02;;
37715;SDS011;23562;50.540;12.504;2022-09-16T07:09:07;47.17;;;22.65;;
37715;SDS011;23562;50.540;12.504;2022-09-16T07:11:32;20.27;;;11.13;;
37715;SDS011;23562;50.540;12.504;2022-09-16T07:13:58;25.75;;;11.15;;
37715;SDS011;23562;50.540;12.504;2022-09-16T07:16:26;15.52;;;8.73;;
37715;SDS011;23562;50.540;12.504;2022-09-16T07:18:55;11.38;;;8.45;;
37715;SDS011;23562;50.540;12.504;2022-09-16T07:21:23;16.23;;;9.07;;
37715;SDS011;23562;50.540;12.504;2022-09-16T07:23:53;16.20;;;8.38;;
37715;SDS011;23562;50.540;12.504;2022-09-16T07:26:24;10.90;;;8.07;;
37715;SDS011;23562;50.540;12.504;2022-09-16T07:28:51;14.63;;;7.60;;
37715;SDS011;23562;50.540;12.504;2022-09-16T07:31:18;13.07;;;7.93;;
37715;SDS011;23562;50.540;12.504;2022-09-16T07:33:49;11.88;;;6.63;;
37715;SDS011;23562;50.540;12.504;2022-09-16T07:36:17;13.52;;;7.57;;
37715;SDS011;23562;50.540;12.504;2022-09-16T07:38:45;9.70;;;6.45;;
37715;SDS011;23562;50.540;12.504;2022-09-16T07:41:11;10.90;;;6.50;;
37715;SDS011;23562;50.540;12.504;2022-09-16T07:43:38;13.27;;;6.78;;
37715;SDS011;23562;50.540;12.504;2022-09-16T07:46:05;9.85;;;5.90;;
37715;SDS011;23562;50.540;12.504;2022-09-16T07:48:31;7.70;;;5.70;;
37715;SDS011;23562;50.540;12.504;2022-09-16T07:50:58;7.85;;;5.47;;
37715;SDS011;23562;50.540;12.504;2022-09-16T07:53:28;8.68;;;5.60;;
37715;SDS011;23562;50.540;12.504;2022-09-16T07:55:55;12.85;;;6.15;;
37715;SDS011;23562;50.540;12.504;2022-09-16T07:58:20;10.07;;;5.65;;
37715;SDS011;23562;50.540;12.504;2022-09-16T08:00:47;9.65;;;5.13;;
37715;SDS011;23562;50.540;12.504;2022-09-16T08:03:13;8.45;;;5.30;;
37715;SDS011;23562;50.540;12.504;2022-09-16T08:05:39;6.90;;;5.18;;
37715;SDS011;23562;50.540;12.504;2022-09-16T08:08:04;7.10;;;5.50;;
37715;SDS011;23562;50.540;12.504;2022-09-16T08:10:29;6.28;;;4.82;;
37715;SDS011;23562;50.540;12.504;2022-09-16T08:12:54;7.32;;;5.05;;
37715;SDS011;23562;50.540;12.504;2022-09-16T08:15:20;6.68;;;4.65;;
37715;SDS011;23562;50.540;12.504;2022-09-16T08:17:45;9.15;;;4.93;;
37715;SDS011;23562;50.540;12.504;2022-09-16T08:20:10;5.90;;;4.72;;
37715;SDS011;23562;50.540;12.504;2022-09-16T08:22:35;10.07;;;4.85;;
37715;SDS011;23562;50.540;12.504;2022-09-16T08:25:01;11.45;;;4.95;;
37715;SDS011;23562;50.540;12.504;2022-09-16T08:27:26;6.93;;;4.55;;
37715;SDS011;23562;50.540;12.504;2022-09-16T08:29:51;6.53;;;4.63;;
37715;SDS011;23562;50.540;12.504;2022-09-16T08:32:17;12.95;;;4.55;;
37715;SDS011;23562;50.540;12.504;2022-09-16T08:34:42;7.78;;;4.72;;
37715;SDS011;23562;50.540;12.504;2022-09-16T08:37:07;7.28;;;4.65;;
37715;SDS011;23562;50.540;12.504;2022-09-16T08:39:33;8.30;;;4.60;;
37715;SDS011;23562;50.540;12.504;2022-09-16T08:50:39;7.60;;;4.20;;
37715;SDS011;23562;50.540;12.504;2022-09-16T08:53:11;5.75;;;2.90;;
37715;SDS011;23562;50.540;12.504;2022-09-16T08:55:41;5.57;;;2.75;;
37715;SDS011;23562;50.540;12.504;2022-09-16T08:58:15;4.90;;;2.83;;
37715;SDS011;23562;50.540;12.504;2022-09-16T09:00:44;7.20;;;2.70;;
37715;SDS011;23562;50.540;12.504;2022-09-16T09:03:57;4.97;;;2.50;;
37715;SDS011;23562;50.540;12.504;2022-09-16T09:11:54;5.93;;;2.47;;
37715;SDS011;23562;50.540;12.504;2022-09-16T09:23:22;7.90;;;2.70;;
37715;SDS011;23562;50.540;12.504;2022-09-16T09:26:06;3.17;;;2.10;;
37715;SDS011;23562;50.540;12.504;2022-09-16T09:28:52;4.18;;;2.30;;
37715;SDS011;23562;50.540;12.504;2022-09-16T09:31:54;5.75;;;2.55;;
37715;SDS011;23562;50.540;12.504;2022-09-16T09:34:48;4.28;;;2.40;;
37715;SDS011;23562;50.540;12.504;2022-09-16T09:40:40;3.83;;;2.30;;
37715;SDS011;23562;50.540;12.504;2022-09-16T09:43:19;3.28;;;2.15;;
37715;SDS011;23562;50.540;12.504;2022-09-16T09:45:55;3.95;;;1.83;;
37715;SDS011;23562;50.540;12.504;2022-09-16T09:48:37;2.42;;;1.60;;
37715;SDS011;23562;50.540;12.504;2022-09-16T09:51:11;3.60;;;1.90;;
37715;SDS011;23562;50.540;12.504;2022-09-16T09:53:44;3.25;;;1.70;;
37715;SDS011;23562;50.540;12.504;2022-09-16T09:56:24;3.22;;;1.75;;
37715;SDS011;23562;50.540;12.504;2022-09-16T09:59:02;2.78;;;1.80;;
37715;SDS011;23562;50.540;12.504;2022-09-16T10:01:44;3.97;;;2.00;;
37715;SDS011;23562;50.540;12.504;2022-09-16T10:04:11;1.80;;;1.70;;
37715;SDS011;23562;50.540;12.504;2022-09-16T10:06:39;4.83;;;2.10;;
37715;SDS011;23562;50.540;12.504;2022-09-16T10:09:07;5.45;;;1.80;;
37715;SDS011;23562;50.540;12.504;2022-09-16T10:11:44;2.63;;;2.00;;
37715;SDS011;23562;50.540;12.504;2022-09-16T10:14:18;3.42;;;2.00;;
37715;SDS011;23562;50.540;12.504;2022-09-16T10:16:50;2.78;;;1.80;;
37715;SDS011;23562;50.540;12.504;2022-09-16T10:19:22;3.80;;;1.60;;
37715;SDS011;23562;50.540;12.504;2022-09-16T10:21:50;4.57;;;1.63;;
37715;SDS011;23562;50.540;12.504;2022-09-16T10:24:28;3.28;;;1.90;;
37715;SDS011;23562;50.540;12.504;2022-09-16T10:26:59;2.58;;;1.60;;
37715;SDS011;23562;50.540;12.504;2022-09-16T10:29:25;5.85;;;2.25;;
37715;SDS011;23562;50.540;12.504;2022-09-16T10:31:51;3.60;;;2.17;;
37715;SDS011;23562;50.540;12.504;2022-09-16T10:34:19;3.03;;;1.73;;
37715;SDS011;23562;50.540;12.504;2022-09-16T10:36:58;3.40;;;1.75;;
37715;SDS011;23562;50.540;12.504;2022-09-16T10:39:32;4.03;;;1.83;;
37715;SDS011;23562;50.540;12.504;2022-09-16T10:41:58;4.45;;;1.63;;
37715;SDS011;23562;50.540;12.504;2022-09-16T10:44:25;7.10;;;1.90;;
37715;SDS011;23562;50.540;12.504;2022-09-16T10:46:54;2.60;;;1.60;;
37715;SDS011;23562;50.540;12.504;2022-09-16T10:49:33;4.45;;;1.40;;
37715;SDS011;23562;50.540;12.504;2022-09-16T10:52:13;2.05;;;1.42;;
37715;SDS011;23562;50.540;12.504;2022-09-16T10:54:46;3.33;;;1.80;;
37715;SDS011;23562;50.540;12.504;2022-09-16T10:57:28;2.92;;;1.40;;
37715;SDS011;23562;50.540;12.504;2022-09-16T11:00:15;8.57;;;1.52;;
37715;SDS011;23562;50.540;12.504;2022-09-16T11:02:45;2.30;;;1.70;;
37715;SDS011;23562;50.540;12.504;2022-09-16T11:05:29;1.58;;;1.48;;
37715;SDS011;23562;50.540;12.504;2022-09-16T11:08:14;5.30;;;1.40;;
37715;SDS011;23562;50.540;12.504;2022-09-16T11:10:59;2.17;;;1.60;;
37715;SDS011;23562;50.540;12.504;2022-09-16T11:13:33;3.63;;;1.80;;
37715;SDS011;23562;50.540;12.504;2022-09-16T11:24:46;2.75;;;1.25;;
37715;SDS011;23562;50.540;12.504;2022-09-16T11:30:13;2.92;;;1.20;;
37715;SDS011;23562;50.540;12.504;2022-09-16T11:38:31;4.15;;;1.50;;
37715;SDS011;23562;50.540;12.504;2022-09-16T11:41:26;4.47;;;1.58;;
37715;SDS011;23562;50.540;12.504;2022-09-16T11:44:18;2.05;;;1.48;;
37715;SDS011;23562;50.540;12.504;2022-09-16T11:47:00;2.80;;;1.52;;
37715;SDS011;23562;50.540;12.504;2022-09-16T11:49:46;4.20;;;1.30;;
37715;SDS011;23562;50.540;12.504;2022-09-16T11:52:47;4.75;;;1.50;;
37715;SDS011;23562;50.540;12.504;2022-09-16T11:55:40;3.55;;;1.55;;
37715;SDS011;23562;50.540;12.504;2022-09-16T11:58:31;5.35;;;1.70;;
37715;SDS011;23562;50.540;12.504;2022-09-16T12:00:59;2.63;;;1.40;;
37715;SDS011;23562;50.540;12.504;2022-09-16T12:03:36;3.03;;;1.60;;
37715;SDS011;23562;50.540;12.504;2022-09-16T12:06:28;1.90;;;1.65;;
37715;SDS011;23562;50.540;12.504;2022-09-16T12:11:34;3.35;;;2.00;;
37715;SDS011;23562;50.540;12.504;2022-09-16T12:14:05;4.07;;;1.90;;
37715;SDS011;23562;50.540;12.504;2022-09-16T12:16:41;3.72;;;1.67;;
37715;SDS011;23562;50.540;12.504;2022-09-16T12:19:13;3.70;;;1.65;;
37715;SDS011;23562;50.540;12.504;2022-09-16T12:21:51;2.22;;;1.52;;
37715;SDS011;23562;50.540;12.504;2022-09-16T12:24:26;4.15;;;1.73;;
37715;SDS011;23562;50.540;12.504;2022-09-16T12:27:03;1.63;;;1.20;;
37715;SDS011;23562;50.540;12.504;2022-09-16T12:29:37;3.05;;;1.00;;
37715;SDS011;23562;50.540;12.504;2022-09-16T12:32:22;1.90;;;1.30;;
37715;SDS011;23562;50.540;12.504;2022-09-16T12:35:11;1.73;;;1.13;;
37715;SDS011;23562;50.540;12.504;2022-09-16T12:37:50;4.47;;;1.20;;
37715;SDS011;23562;50.540;12.504;2022-09-16T12:40:24;1.42;;;0.95;;
37715;SDS011;23562;50.540;12.504;2022-09-16T12:43:09;2.80;;;1.00;;
37715;SDS011;23562;50.540;12.504;2022-09-16T12:46:01;3.25;;;1.15;;
37715;SDS011;23562;50.540;12.504;2022-09-16T12:48:55;4.38;;;1.40;;
37715;SDS011;23562;50.540;12.504;2022-09-16T12:51:58;2.95;;;1.30;;
37715;SDS011;23562;50.540;12.504;2022-09-16T12:54:44;3.13;;;1.58;;
37715;SDS011;23562;50.540;12.504;2022-09-16T12:57:43;1.75;;;1.30;;
37715;SDS011;23562;50.540;12.504;2022-09-16T13:03:40;4.68;;;1.42;;
37715;SDS011;23562;50.540;12.504;2022-09-16T13:06:20;4.90;;;1.55;;
37715;SDS011;23562;50.540;12.504;2022-09-16T13:08:49;2.72;;;1.50;;
37715;SDS011;23562;50.540;12.504;2022-09-16T13:11:22;2.38;;;1.60;;
37715;SDS011;23562;50.540;12.504;2022-09-16T13:13:57;1.70;;;1.45;;
37715;SDS011;23562;50.540;12.504;2022-09-16T13:16:27;3.45;;;1.73;;
37715;SDS011;23562;50.540;12.504;2022-09-16T13:21:58;2.95;;;1.50;;
37715;SDS011;23562;50.540;12.504;2022-09-16T13:24:34;2.72;;;1.70;;
37715;SDS011;23562;50.540;12.504;2022-09-16T13:27:18;3.42;;;1.70;;
37715;SDS011;23562;50.540;12.504;2022-09-16T13:29:49;2.72;;;1.73;;
37715;SDS011;23562;50.540;12.504;2022-09-16T13:37:46;1.63;;;1.00;;
37715;SDS011;23562;50.540;12.504;2022-09-16T13:42:42;1.27;;;0.98;;
37715;SDS011;23562;50.540;12.504;2022-09-16T13:48:11;2.15;;;1.38;;
37715;SDS011;23562;50.540;12.504;2022-09-16T13:50:44;3.50;;;1.20;;
37715;SDS011;23562;50.540;12.504;2022-09-16T13:53:19;2.42;;;1.42;;
37715;SDS011;23562;50.540;12.504;2022-09-16T13:55:48;3.95;;;1.50;;
37715;SDS011;23562;50.540;12.504;2022-09-16T14:01:20;1.50;;;1.40;;
37715;SDS011;23562;50.540;12.504;2022-09-16T14:03:57;3.33;;;1.08;;
37715;SDS011;23562;50.540;12.504;2022-09-16T14:09:27;3.22;;;1.30;;
37715;SDS011;23562;50.540;12.504;2022-09-16T14:12:11;1.80;;;1.15;;
37715;SDS011;23562;50.540;12.504;2022-09-16T14:14:44;3.78;;;1.40;;
37715;SDS011;23562;50.540;12.504;2022-09-16T14:17:15;4.60;;;1.27;;
37715;SDS011;23562;50.540;12.504;2022-09-16T14:19:43;1.23;;;1.13;;
37715;SDS011;23562;50.540;12.504;2022-09-16T14:22:14;2.97;;;1.20;;
37715;SDS011;23562;50.540;12.504;2022-09-16T14:24:42;2.15;;;1.15;;
37715;SDS011;23562;50.540;12.504;2022-09-16T14:27:20;2.40;;;1.10;;
37715;SDS011;23562;50.540;12.504;2022-09-16T14:29:54;1.88;;;1.20;;
37715;SDS011;23562;50.540;12.504;2022-09-16T14:32:22;1.70;;;1.10;;
37715;SDS011;23562;50.540;12.504;2022-09-16T14:34:49;1.90;;;1.00;;
37715;SDS011;23562;50.540;12.504;2022-09-16T14:37:17;1.20;;;0.98;;
37715;SDS011;23562;50.540;12.504;2022-09-16T14:39:44;1.33;;;1.15;;
37715;SDS011;23562;50.540;12.504;2022-09-16T14:42:13;2.00;;;1.25;;
37715;SDS011;23562;50.540;12.504;2022-09-16T14:44:44;1.17;;;1.08;;
37715;SDS011;23562;50.540;12.504;2022-09-16T14:47:17;2.20;;;1.23;;
37715;SDS011;23562;50.540;12.504;2022-09-16T14:49:48;2.05;;;1.40;;
37715;SDS011;23562;50.540;12.504;2022-09-16T14:54:48;2.58;;;1.70;;
37715;SDS011;23562;50.540;12.504;2022-09-16T14:57:22;1.60;;;1.50;;
37715;SDS011;23562;50.540;12.504;2022-09-16T14:59:50;2.17;;;1.42;;
37715;SDS011;23562;50.540;12.504;2022-09-16T15:02:23;1.70;;;1.20;;
37715;SDS011;23562;50.540;12.504;2022-09-16T15:04:56;3.17;;;1.35;;
37715;SDS011;23562;50.540;12.504;2022-09-16T15:07:32;3.38;;;1.27;;
37715;SDS011;23562;50.540;12.504;2022-09-16T15:10:08;1.73;;;1.50;;
37715;SDS011;23562;50.540;12.504;2022-09-16T15:12:49;2.50;;;1.20;;
37715;SDS011;23562;50.540;12.504;2022-09-16T15:15:22;2.65;;;1.20;;
37715;SDS011;23562;50.540;12.504;2022-09-16T15:17:53;3.20;;;1.10;;
37715;SDS011;23562;50.540;12.504;2022-09-16T15:20:23;2.25;;;1.05;;
37715;SDS011;23562;50.540;12.504;2022-09-16T15:22:51;1.83;;;1.00;;
37715;SDS011;23562;50.540;12.504;2022-09-16T15:25:21;3.22;;;1.27;;
37715;SDS011;23562;50.540;12.504;2022-09-16T15:27:49;1.95;;;0.95;;
37715;SDS011;23562;50.540;12.504;2022-09-16T15:30:25;1.92;;;1.33;;
37715;SDS011;23562;50.540;12.504;2022-09-16T15:32:50;2.55;;;1.13;;
37715;SDS011;23562;50.540;12.504;2022-09-16T15:35:26;3.45;;;1.95;;
37715;SDS011;23562;50.540;12.504;2022-09-16T15:37:54;4.85;;;3.35;;
37715;SDS011;23562;50.540;12.504;2022-09-16T15:40:21;17.38;;;9.93;;
37715;SDS011;23562;50.540;12.504;2022-09-16T15:43:03;3.03;;;2.17;;
37715;SDS011;23562;50.540;12.504;2022-09-16T15:45:35;5.50;;;5.00;;
37715;SDS011;23562;50.540;12.504;2022-09-16T15:50:44;1.50;;;1.35;;
37715;SDS011;23562;50.540;12.504;2022-09-16T16:00:58;2.90;;;1.55;;
37715;SDS011;23562;50.540;12.504;2022-09-16T16:03:30;2.47;;;2.20;;
37715;SDS011;23562;50.540;12.504;2022-09-16T16:06:01;2.70;;;1.95;;
37715;SDS011;23562;50.540;12.504;2022-09-16T16:08:39;1.83;;;1.40;;
37715;SDS011;23562;50.540;12.504;2022-09-16T16:11:12;2.83;;;1.85;;
37715;SDS011;23562;50.540;12.504;2022-09-16T16:13:42;2.92;;;2.17;;
37715;SDS011;23562;50.540;12.504;2022-09-16T16:16:08;2.22;;;1.80;;
37715;SDS011;23562;50.540;12.504;2022-09-16T16:18:34;3.63;;;1.70;;
37715;SDS011;23562;50.540;12.504;2022-09-16T16:21:04;2.47;;;1.50;;
37715;SDS011;23562;50.540;12.504;2022-09-16T16:23:32;5.07;;;1.80;;
37715;SDS011;23562;50.540;12.504;2022-09-16T16:25:58;3.33;;;1.73;;
37715;SDS011;23562;50.540;12.504;2022-09-16T16:28:23;4.80;;;2.30;;
37715;SDS011;23562;50.540;12.504;2022-09-16T16:30:48;3.80;;;1.75;;
37715;SDS011;23562;50.540;12.504;2022-09-16T16:33:13;2.13;;;1.77;;
37715;SDS011;23562;50.540;12.504;2022-09-16T16:35:39;4.28;;;1.73;;
37715;SDS011;23562;50.540;12.504;2022-09-16T16:38:04;3.10;;;1.85;;
37715;SDS011;23562;50.540;12.504;2022-09-16T16:40:29;2.53;;;1.70;;
37715;SDS011;23562;50.540;12.504;2022-09-16T16:42:54;3.53;;;1.98;;
37715;SDS011;23562;50.540;12.504;2022-09-16T16:45:20;3.03;;;2.10;;
37715;SDS011;23562;50.540;12.504;2022-09-16T16:47:45;2.90;;;2.55;;
37715;SDS011;23562;50.540;12.504;2022-09-16T16:50:10;3.30;;;1.85;;
37715;SDS011;23562;50.540;12.504;2022-09-16T16:52:36;4.55;;;2.05;;
37715;SDS011;23562;50.540;12.504;2022-09-16T16:55:01;2.15;;;1.50;;